sensor_id;sensor_type;location;lat;lon;timestamp;temperature;humidity
49236;DHT22;35067;48.134;8.378;2023-10-13T00:00:37;17.00;49.00
49236;DHT22;35067;48.134;8.378;2023-10-13T00:01:40;17.00;49.20
49236;DHT22;35067;48.134;8.378;2023-10-13T00:02:41;17.00;49.30
49236;DHT22;35067;48.134;8.378;2023-10-13T00:03:42;16.90;49.10
49236;DHT22;35067;48.134;8.378;2023-10-13T00:04:42;17.00;49.00
49236;DHT22;35067;48.134;8.378;2023-10-13T00:05:43;17.10;48.70
49236;DHT22;35067;48.134;8.378;2023-10-13T00:06:44;17.20;48.50
49236;DHT22;35067;48.134;8.378;2023-10-13T00:07:45;17.10;48.80
49236;DHT22;35067;48.134;8.378;2023-10-13T00:08:47;17.00;48.90
49236;DHT22;35067;48.134;8.378;2023-10-13T00:09:48;17.00;49.10
49236;DHT22;35067;48.134;8.378;2023-10-13T00:10:49;17.00;49.20
49236;DHT22;35067;48.134;8.378;2023-10-13T00:11:50;16.90;49.30
49236;DHT22;35067;48.134;8.378;2023-10-13T00:12:52;16.90;50.00
49236;DHT22;35067;48.134;8.378;2023-10-13T00:13:53;16.90;49.50
49236;DHT22;35067;48.134;8.378;2023-10-13T00:14:54;16.80;49.50
49236;DHT22;35067;48.134;8.378;2023-10-13T00:15:55;16.80;50.30
49236;DHT22;35067;48.134;8.378;2023-10-13T00:17:03;16.70;50.00
49236;DHT22;35067;48.134;8.378;2023-10-13T00:18:07;16.80;49.90
49236;DHT22;35067;48.134;8.378;2023-10-13T00:19:12;16.80;49.80
49236;DHT22;35067;48.134;8.378;2023-10-13T00:20:13;16.80;50.20
49236;DHT22;35067;48.134;8.378;2023-10-13T00:21:36;16.80;50.30
49236;DHT22;35067;48.134;8.378;2023-10-13T00:22:37;16.80;50.10
49236;DHT22;35067;48.134;8.378;2023-10-13T00:23:42;16.80;50.10
49236;DHT22;35067;48.134;8.378;2023-10-13T00:24:53;16.80;51.00
49236;DHT22;35067;48.134;8.378;2023-10-13T00:25:59;16.70;51.10
49236;DHT22;35067;48.134;8.378;2023-10-13T00:27:02;16.50;51.90
49236;DHT22;35067;48.134;8.378;2023-10-13T00:28:05;16.50;51.90
49236;DHT22;35067;48.134;8.378;2023-10-13T00:29:09;16.40;52.20
49236;DHT22;35067;48.134;8.378;2023-10-13T00:30:10;16.40;52.60
49236;DHT22;35067;48.134;8.378;2023-10-13T00:31:23;16.30;53.00
49236;DHT22;35067;48.134;8.378;2023-10-13T00:32:23;16.30;53.50
49236;DHT22;35067;48.134;8.378;2023-10-13T00:33:27;16.30;53.70
49236;DHT22;35067;48.134;8.378;2023-10-13T00:34:28;16.30;54.40
49236;DHT22;35067;48.134;8.378;2023-10-13T00:35:37;16.20;54.70
49236;DHT22;35067;48.134;8.378;2023-10-13T00:36:42;16.10;55.20
49236;DHT22;35067;48.134;8.378;2023-10-13T00:37:49;16.00;55.50
49236;DHT22;35067;48.134;8.378;2023-10-13T00:38:53;15.90;55.80
49236;DHT22;35067;48.134;8.378;2023-10-13T00:39:56;15.80;56.30
49236;DHT22;35067;48.134;8.378;2023-10-13T00:40:57;15.80;57.50
49236;DHT22;35067;48.134;8.378;2023-10-13T00:42:14;15.60;57.80
49236;DHT22;35067;48.134;8.378;2023-10-13T00:43:21;15.60;58.70
49236;DHT22;35067;48.134;8.378;2023-10-13T00:44:22;15.60;58.90
49236;DHT22;35067;48.134;8.378;2023-10-13T00:45:34;15.50;59.70
49236;DHT22;35067;48.134;8.378;2023-10-13T00:46:36;15.40;59.80
49236;DHT22;35067;48.134;8.378;2023-10-13T00:47:37;15.30;60.80
49236;DHT22;35067;48.134;8.378;2023-10-13T00:48:41;15.20;61.30
49236;DHT22;35067;48.134;8.378;2023-10-13T00:49:46;15.10;61.90
49236;DHT22;35067;48.134;8.378;2023-10-13T00:50:48;15.10;62.10
49236;DHT22;35067;48.134;8.378;2023-10-13T00:51:50;15.00;62.80
49236;DHT22;35067;48.134;8.378;2023-10-13T00:52:51;14.80;63.60
49236;DHT22;35067;48.134;8.378;2023-10-13T00:53:51;14.90;63.60
49236;DHT22;35067;48.134;8.378;2023-10-13T00:54:52;14.90;63.80
49236;DHT22;35067;48.134;8.378;2023-10-13T00:55:54;14.90;64.20
49236;DHT22;35067;48.134;8.378;2023-10-13T00:56:58;14.80;64.80
49236;DHT22;35067;48.134;8.378;2023-10-13T00:58:05;14.80;65.10
49236;DHT22;35067;48.134;8.378;2023-10-13T00:59:08;14.80;65.10
49236;DHT22;35067;48.134;8.378;2023-10-13T01:00:10;14.80;65.60
49236;DHT22;35067;48.134;8.378;2023-10-13T01:01:24;14.80;65.70
49236;DHT22;35067;48.134;8.378;2023-10-13T01:02:30;14.70;66.20
49236;DHT22;35067;48.134;8.378;2023-10-13T01:03:36;14.60;67.00
49236;DHT22;35067;48.134;8.378;2023-10-13T01:04:38;14.50;67.20
49236;DHT22;35067;48.134;8.378;2023-10-13T01:05:40;14.50;67.60
49236;DHT22;35067;48.134;8.378;2023-10-13T01:06:41;14.40;68.50
49236;DHT22;35067;48.134;8.378;2023-10-13T01:07:42;14.40;68.60
49236;DHT22;35067;48.134;8.378;2023-10-13T01:08:45;14.40;69.30
49236;DHT22;35067;48.134;8.378;2023-10-13T01:09:51;14.40;70.10
49236;DHT22;35067;48.134;8.378;2023-10-13T01:10:51;14.40;70.50
49236;DHT22;35067;48.134;8.378;2023-10-13T01:11:53;14.30;70.70
49236;DHT22;35067;48.134;8.378;2023-10-13T01:12:55;14.10;71.60
49236;DHT22;35067;48.134;8.378;2023-10-13T01:13:56;14.10;72.60
49236;DHT22;35067;48.134;8.378;2023-10-13T01:14:57;14.00;73.40
49236;DHT22;35067;48.134;8.378;2023-10-13T01:15:59;13.90;73.70
49236;DHT22;35067;48.134;8.378;2023-10-13T01:17:02;13.90;74.90
49236;DHT22;35067;48.134;8.378;2023-10-13T01:18:11;13.90;75.10
49236;DHT22;35067;48.134;8.378;2023-10-13T01:19:17;13.80;76.80
49236;DHT22;35067;48.134;8.378;2023-10-13T01:20:18;13.70;76.90
49236;DHT22;35067;48.134;8.378;2023-10-13T01:21:21;13.70;77.30
49236;DHT22;35067;48.134;8.378;2023-10-13T01:22:27;13.70;77.40
49236;DHT22;35067;48.134;8.378;2023-10-13T01:23:29;13.70;77.30
49236;DHT22;35067;48.134;8.378;2023-10-13T01:24:30;13.70;76.80
49236;DHT22;35067;48.134;8.378;2023-10-13T01:25:37;13.60;77.80
49236;DHT22;35067;48.134;8.378;2023-10-13T01:26:41;13.50;77.40
49236;DHT22;35067;48.134;8.378;2023-10-13T01:27:43;13.50;78.30
49236;DHT22;35067;48.134;8.378;2023-10-13T01:28:45;13.50;78.90
49236;DHT22;35067;48.134;8.378;2023-10-13T01:29:47;13.50;79.20
49236;DHT22;35067;48.134;8.378;2023-10-13T01:30:48;13.40;79.80
49236;DHT22;35067;48.134;8.378;2023-10-13T01:31:52;13.40;79.50
49236;DHT22;35067;48.134;8.378;2023-10-13T01:32:53;13.40;79.90
49236;DHT22;35067;48.134;8.378;2023-10-13T01:33:55;13.40;80.50
49236;DHT22;35067;48.134;8.378;2023-10-13T01:34:59;13.30;80.60
49236;DHT22;35067;48.134;8.378;2023-10-13T01:36:06;13.30;81.30
49236;DHT22;35067;48.134;8.378;2023-10-13T01:37:10;13.30;82.10
49236;DHT22;35067;48.134;8.378;2023-10-13T01:38:11;13.20;82.40
49236;DHT22;35067;48.134;8.378;2023-10-13T01:39:12;13.30;82.10
49236;DHT22;35067;48.134;8.378;2023-10-13T01:40:17;13.20;82.00
49236;DHT22;35067;48.134;8.378;2023-10-13T01:41:21;13.20;82.00
49236;DHT22;35067;48.134;8.378;2023-10-13T01:42:22;13.30;81.80
49236;DHT22;35067;48.134;8.378;2023-10-13T01:43:25;13.30;81.70
49236;DHT22;35067;48.134;8.378;2023-10-13T01:44:26;13.30;81.50
49236;DHT22;35067;48.134;8.378;2023-10-13T01:45:28;13.20;82.90
49236;DHT22;35067;48.134;8.378;2023-10-13T01:46:32;13.20;83.20
49236;DHT22;35067;48.134;8.378;2023-10-13T01:47:33;13.20;83.30
49236;DHT22;35067;48.134;8.378;2023-10-13T01:48:34;13.10;83.00
49236;DHT22;35067;48.134;8.378;2023-10-13T01:49:40;13.10;82.80
49236;DHT22;35067;48.134;8.378;2023-10-13T01:50:47;13.10;83.60
49236;DHT22;35067;48.134;8.378;2023-10-13T01:51:48;13.10;83.50
49236;DHT22;35067;48.134;8.378;2023-10-13T01:52:49;13.00;83.60
49236;DHT22;35067;48.134;8.378;2023-10-13T01:53:52;13.00;84.20
49236;DHT22;35067;48.134;8.378;2023-10-13T01:54:56;13.00;84.30
49236;DHT22;35067;48.134;8.378;2023-10-13T01:56:01;12.90;83.90
49236;DHT22;35067;48.134;8.378;2023-10-13T01:57:06;12.90;84.00
49236;DHT22;35067;48.134;8.378;2023-10-13T01:58:07;13.00;84.00
49236;DHT22;35067;48.134;8.378;2023-10-13T01:59:15;13.00;83.70
49236;DHT22;35067;48.134;8.378;2023-10-13T02:00:16;12.90;83.20
49236;DHT22;35067;48.134;8.378;2023-10-13T02:01:19;13.00;82.80
49236;DHT22;35067;48.134;8.378;2023-10-13T02:02:29;13.10;82.90
49236;DHT22;35067;48.134;8.378;2023-10-13T02:03:30;13.10;82.50
49236;DHT22;35067;48.134;8.378;2023-10-13T02:04:30;13.10;82.10
49236;DHT22;35067;48.134;8.378;2023-10-13T02:05:47;13.00;82.80
49236;DHT22;35067;48.134;8.378;2023-10-13T02:06:48;13.10;82.60
49236;DHT22;35067;48.134;8.378;2023-10-13T02:07:49;13.00;82.30
49236;DHT22;35067;48.134;8.378;2023-10-13T02:08:49;13.00;82.80
49236;DHT22;35067;48.134;8.378;2023-10-13T02:09:57;13.00;83.00
49236;DHT22;35067;48.134;8.378;2023-10-13T02:10:58;13.00;82.80
49236;DHT22;35067;48.134;8.378;2023-10-13T02:12:01;13.00;83.10
49236;DHT22;35067;48.134;8.378;2023-10-13T02:13:02;13.00;83.30
49236;DHT22;35067;48.134;8.378;2023-10-13T02:14:04;12.90;83.40
49236;DHT22;35067;48.134;8.378;2023-10-13T02:15:05;12.90;84.40
49236;DHT22;35067;48.134;8.378;2023-10-13T02:16:05;12.80;85.00
49236;DHT22;35067;48.134;8.378;2023-10-13T02:17:07;12.80;85.00
49236;DHT22;35067;48.134;8.378;2023-10-13T02:18:19;12.80;85.30
49236;DHT22;35067;48.134;8.378;2023-10-13T02:19:42;12.90;85.30
49236;DHT22;35067;48.134;8.378;2023-10-13T02:20:46;12.70;85.40
49236;DHT22;35067;48.134;8.378;2023-10-13T02:21:46;12.80;85.40
49236;DHT22;35067;48.134;8.378;2023-10-13T02:22:59;12.80;85.30
49236;DHT22;35067;48.134;8.378;2023-10-13T02:24:01;12.80;85.10
49236;DHT22;35067;48.134;8.378;2023-10-13T02:25:04;12.80;85.20
49236;DHT22;35067;48.134;8.378;2023-10-13T02:26:06;12.70;85.60
49236;DHT22;35067;48.134;8.378;2023-10-13T02:27:15;12.70;85.60
49236;DHT22;35067;48.134;8.378;2023-10-13T02:28:16;12.80;86.00
49236;DHT22;35067;48.134;8.378;2023-10-13T02:29:21;12.80;86.40
49236;DHT22;35067;48.134;8.378;2023-10-13T02:30:22;12.80;85.90
49236;DHT22;35067;48.134;8.378;2023-10-13T02:31:27;12.70;86.20
49236;DHT22;35067;48.134;8.378;2023-10-13T02:32:28;12.70;86.30
49236;DHT22;35067;48.134;8.378;2023-10-13T02:33:30;12.70;87.30
49236;DHT22;35067;48.134;8.378;2023-10-13T02:34:31;12.60;87.30
49236;DHT22;35067;48.134;8.378;2023-10-13T02:35:32;12.60;87.00
49236;DHT22;35067;48.134;8.378;2023-10-13T02:36:35;12.60;87.30
49236;DHT22;35067;48.134;8.378;2023-10-13T02:37:47;12.60;86.90
49236;DHT22;35067;48.134;8.378;2023-10-13T02:38:55;12.60;87.30
49236;DHT22;35067;48.134;8.378;2023-10-13T02:39:58;12.50;88.80
49236;DHT22;35067;48.134;8.378;2023-10-13T02:41:01;12.50;89.20
49236;DHT22;35067;48.134;8.378;2023-10-13T02:42:09;12.40;89.30
49236;DHT22;35067;48.134;8.378;2023-10-13T02:43:24;12.40;89.40
49236;DHT22;35067;48.134;8.378;2023-10-13T02:44:26;12.30;89.10
49236;DHT22;35067;48.134;8.378;2023-10-13T02:45:34;12.30;89.80
49236;DHT22;35067;48.134;8.378;2023-10-13T02:46:37;12.30;89.40
49236;DHT22;35067;48.134;8.378;2023-10-13T02:47:40;12.30;90.00
49236;DHT22;35067;48.134;8.378;2023-10-13T02:48:43;12.30;90.00
49236;DHT22;35067;48.134;8.378;2023-10-13T02:49:46;12.30;90.30
49236;DHT22;35067;48.134;8.378;2023-10-13T02:50:58;12.30;90.20
49236;DHT22;35067;48.134;8.378;2023-10-13T02:52:02;12.30;90.10
49236;DHT22;35067;48.134;8.378;2023-10-13T02:53:08;12.30;90.00
49236;DHT22;35067;48.134;8.378;2023-10-13T02:54:12;12.40;90.20
49236;DHT22;35067;48.134;8.378;2023-10-13T02:55:18;12.50;89.60
49236;DHT22;35067;48.134;8.378;2023-10-13T02:56:25;12.40;89.40
49236;DHT22;35067;48.134;8.378;2023-10-13T02:57:26;12.40;89.30
49236;DHT22;35067;48.134;8.378;2023-10-13T02:58:27;12.40;89.50
49236;DHT22;35067;48.134;8.378;2023-10-13T02:59:38;12.50;89.00
49236;DHT22;35067;48.134;8.378;2023-10-13T03:00:46;12.60;88.70
49236;DHT22;35067;48.134;8.378;2023-10-13T03:01:47;12.50;89.00
49236;DHT22;35067;48.134;8.378;2023-10-13T03:02:47;12.60;89.00
49236;DHT22;35067;48.134;8.378;2023-10-13T03:03:56;12.60;88.70
49236;DHT22;35067;48.134;8.378;2023-10-13T03:04:58;12.50;88.60
49236;DHT22;35067;48.134;8.378;2023-10-13T03:06:09;12.50;88.70
49236;DHT22;35067;48.134;8.378;2023-10-13T03:07:12;12.60;88.20
49236;DHT22;35067;48.134;8.378;2023-10-13T03:08:16;12.50;88.00
49236;DHT22;35067;48.134;8.378;2023-10-13T03:09:26;12.60;88.30
49236;DHT22;35067;48.134;8.378;2023-10-13T03:10:26;12.60;87.80
49236;DHT22;35067;48.134;8.378;2023-10-13T03:11:29;12.60;88.00
49236;DHT22;35067;48.134;8.378;2023-10-13T03:12:33;12.60;88.50
49236;DHT22;35067;48.134;8.378;2023-10-13T03:13:34;12.60;88.50
49236;DHT22;35067;48.134;8.378;2023-10-13T03:14:34;12.50;88.40
49236;DHT22;35067;48.134;8.378;2023-10-13T03:15:35;12.50;88.70
49236;DHT22;35067;48.134;8.378;2023-10-13T03:16:36;12.40;89.50
49236;DHT22;35067;48.134;8.378;2023-10-13T03:17:36;12.40;89.70
49236;DHT22;35067;48.134;8.378;2023-10-13T03:18:44;12.40;89.60
49236;DHT22;35067;48.134;8.378;2023-10-13T03:19:58;12.40;89.40
49236;DHT22;35067;48.134;8.378;2023-10-13T03:20:59;12.40;90.10
49236;DHT22;35067;48.134;8.378;2023-10-13T03:22:03;12.30;90.90
49236;DHT22;35067;48.134;8.378;2023-10-13T03:23:11;12.30;90.70
49236;DHT22;35067;48.134;8.378;2023-10-13T03:24:13;12.20;91.00
49236;DHT22;35067;48.134;8.378;2023-10-13T03:25:14;12.10;91.20
49236;DHT22;35067;48.134;8.378;2023-10-13T03:26:24;12.10;91.20
49236;DHT22;35067;48.134;8.378;2023-10-13T03:27:24;12.20;90.80
49236;DHT22;35067;48.134;8.378;2023-10-13T03:28:38;12.20;90.60
49236;DHT22;35067;48.134;8.378;2023-10-13T03:29:39;12.30;90.70
49236;DHT22;35067;48.134;8.378;2023-10-13T03:30:43;12.30;90.70
49236;DHT22;35067;48.134;8.378;2023-10-13T03:31:44;12.30;90.60
49236;DHT22;35067;48.134;8.378;2023-10-13T03:32:46;12.30;90.70
49236;DHT22;35067;48.134;8.378;2023-10-13T03:33:54;12.20;90.70
49236;DHT22;35067;48.134;8.378;2023-10-13T03:35:00;12.20;90.70
49236;DHT22;35067;48.134;8.378;2023-10-13T03:36:00;12.10;90.70
49236;DHT22;35067;48.134;8.378;2023-10-13T03:37:07;12.20;90.70
49236;DHT22;35067;48.134;8.378;2023-10-13T03:38:18;12.20;90.70
49236;DHT22;35067;48.134;8.378;2023-10-13T03:39:19;12.20;90.50
49236;DHT22;35067;48.134;8.378;2023-10-13T03:40:23;12.20;90.50
49236;DHT22;35067;48.134;8.378;2023-10-13T03:41:23;12.20;90.40
49236;DHT22;35067;48.134;8.378;2023-10-13T03:42:31;12.20;90.50
49236;DHT22;35067;48.134;8.378;2023-10-13T03:43:33;12.20;90.40
49236;DHT22;35067;48.134;8.378;2023-10-13T03:44:35;12.10;90.50
49236;DHT22;35067;48.134;8.378;2023-10-13T03:45:43;12.10;90.60
49236;DHT22;35067;48.134;8.378;2023-10-13T03:46:44;12.10;91.00
49236;DHT22;35067;48.134;8.378;2023-10-13T03:47:48;12.00;91.10
49236;DHT22;35067;48.134;8.378;2023-10-13T03:48:52;12.00;91.10
49236;DHT22;35067;48.134;8.378;2023-10-13T03:49:54;12.00;91.20
49236;DHT22;35067;48.134;8.378;2023-10-13T03:51:15;12.00;91.00
49236;DHT22;35067;48.134;8.378;2023-10-13T03:52:15;12.00;91.00
49236;DHT22;35067;48.134;8.378;2023-10-13T03:53:22;12.00;91.00
49236;DHT22;35067;48.134;8.378;2023-10-13T03:54:25;12.00;91.20
49236;DHT22;35067;48.134;8.378;2023-10-13T03:55:30;12.00;91.20
49236;DHT22;35067;48.134;8.378;2023-10-13T03:56:30;12.00;91.20
49236;DHT22;35067;48.134;8.378;2023-10-13T03:57:40;12.00;91.10
49236;DHT22;35067;48.134;8.378;2023-10-13T03:58:42;12.00;91.10
49236;DHT22;35067;48.134;8.378;2023-10-13T03:59:46;12.00;91.10
49236;DHT22;35067;48.134;8.378;2023-10-13T04:00:48;11.90;91.10
49236;DHT22;35067;48.134;8.378;2023-10-13T04:01:49;11.90;91.30
49236;DHT22;35067;48.134;8.378;2023-10-13T04:02:59;11.90;91.60
49236;DHT22;35067;48.134;8.378;2023-10-13T04:04:02;11.80;91.90
49236;DHT22;35067;48.134;8.378;2023-10-13T04:05:11;11.70;92.40
49236;DHT22;35067;48.134;8.378;2023-10-13T04:06:31;11.70;92.50
49236;DHT22;35067;48.134;8.378;2023-10-13T04:07:46;11.50;92.90
49236;DHT22;35067;48.134;8.378;2023-10-13T04:09:14;11.40;93.10
49236;DHT22;35067;48.134;8.378;2023-10-13T04:10:29;11.50;93.30
49236;DHT22;35067;48.134;8.378;2023-10-13T04:11:45;11.40;93.10
49236;DHT22;35067;48.134;8.378;2023-10-13T04:13:04;11.40;93.10
49236;DHT22;35067;48.134;8.378;2023-10-13T04:14:23;11.50;92.90
49236;DHT22;35067;48.134;8.378;2023-10-13T04:15:44;11.50;92.70
49236;DHT22;35067;48.134;8.378;2023-10-13T04:17:04;11.50;92.60
49236;DHT22;35067;48.134;8.378;2023-10-13T04:18:14;11.60;92.60
49236;DHT22;35067;48.134;8.378;2023-10-13T04:19:30;11.50;92.80
49236;DHT22;35067;48.134;8.378;2023-10-13T04:20:40;11.50;92.90
49236;DHT22;35067;48.134;8.378;2023-10-13T04:21:46;11.50;92.80
49236;DHT22;35067;48.134;8.378;2023-10-13T04:22:58;11.50;92.80
49236;DHT22;35067;48.134;8.378;2023-10-13T04:23:58;11.50;93.00
49236;DHT22;35067;48.134;8.378;2023-10-13T04:25:21;11.50;93.00
49236;DHT22;35067;48.134;8.378;2023-10-13T04:26:42;11.60;93.10
49236;DHT22;35067;48.134;8.378;2023-10-13T04:28:13;11.50;93.00
49236;DHT22;35067;48.134;8.378;2023-10-13T04:29:14;11.50;93.10
49236;DHT22;35067;48.134;8.378;2023-10-13T04:30:36;11.40;93.10
49236;DHT22;35067;48.134;8.378;2023-10-13T04:31:57;11.50;93.30
49236;DHT22;35067;48.134;8.378;2023-10-13T04:33:00;11.50;93.30
49236;DHT22;35067;48.134;8.378;2023-10-13T04:34:17;11.50;93.30
49236;DHT22;35067;48.134;8.378;2023-10-13T04:35:20;11.50;93.20
49236;DHT22;35067;48.134;8.378;2023-10-13T04:36:24;11.50;93.20
49236;DHT22;35067;48.134;8.378;2023-10-13T04:37:27;11.50;93.10
49236;DHT22;35067;48.134;8.378;2023-10-13T04:38:33;11.50;93.20
49236;DHT22;35067;48.134;8.378;2023-10-13T04:39:50;11.50;93.10
49236;DHT22;35067;48.134;8.378;2023-10-13T04:40:58;11.60;93.00
49236;DHT22;35067;48.134;8.378;2023-10-13T04:42:02;11.50;92.80
49236;DHT22;35067;48.134;8.378;2023-10-13T04:43:13;11.60;92.80
49236;DHT22;35067;48.134;8.378;2023-10-13T04:44:33;11.50;92.70
49236;DHT22;35067;48.134;8.378;2023-10-13T04:45:49;11.50;92.80
49236;DHT22;35067;48.134;8.378;2023-10-13T04:46:57;11.50;92.90
49236;DHT22;35067;48.134;8.378;2023-10-13T04:48:01;11.40;92.80
49236;DHT22;35067;48.134;8.378;2023-10-13T04:49:22;11.40;93.10
49236;DHT22;35067;48.134;8.378;2023-10-13T04:50:34;11.40;93.40
49236;DHT22;35067;48.134;8.378;2023-10-13T04:51:38;11.40;93.50
49236;DHT22;35067;48.134;8.378;2023-10-13T04:52:58;11.30;93.60
49236;DHT22;35067;48.134;8.378;2023-10-13T04:54:02;11.30;93.60
49236;DHT22;35067;48.134;8.378;2023-10-13T04:55:26;11.30;93.80
49236;DHT22;35067;48.134;8.378;2023-10-13T04:56:45;11.20;93.90
49236;DHT22;35067;48.134;8.378;2023-10-13T04:58:14;11.20;93.90
49236;DHT22;35067;48.134;8.378;2023-10-13T04:59:28;11.20;93.80
49236;DHT22;35067;48.134;8.378;2023-10-13T05:00:44;11.10;94.00
49236;DHT22;35067;48.134;8.378;2023-10-13T05:02:16;11.10;94.10
49236;DHT22;35067;48.134;8.378;2023-10-13T05:03:35;11.10;94.10
49236;DHT22;35067;48.134;8.378;2023-10-13T05:04:54;11.10;94.40
49236;DHT22;35067;48.134;8.378;2023-10-13T05:06:06;11.10;94.30
49236;DHT22;35067;48.134;8.378;2023-10-13T05:07:33;11.10;94.50
49236;DHT22;35067;48.134;8.378;2023-10-13T05:08:52;11.10;94.60
49236;DHT22;35067;48.134;8.378;2023-10-13T05:10:12;11.10;94.50
49236;DHT22;35067;48.134;8.378;2023-10-13T05:11:31;11.10;94.50
49236;DHT22;35067;48.134;8.378;2023-10-13T05:12:50;11.10;94.40
49236;DHT22;35067;48.134;8.378;2023-10-13T05:14:09;11.10;94.40
49236;DHT22;35067;48.134;8.378;2023-10-13T05:15:29;11.10;94.30
49236;DHT22;35067;48.134;8.378;2023-10-13T05:16:48;11.00;94.50
49236;DHT22;35067;48.134;8.378;2023-10-13T05:18:07;11.00;94.70
49236;DHT22;35067;48.134;8.378;2023-10-13T05:19:26;10.90;94.70
49236;DHT22;35067;48.134;8.378;2023-10-13T05:20:46;11.00;94.80
49236;DHT22;35067;48.134;8.378;2023-10-13T05:22:05;11.00;94.70
49236;DHT22;35067;48.134;8.378;2023-10-13T05:23:24;11.00;94.60
49236;DHT22;35067;48.134;8.378;2023-10-13T05:24:43;11.00;94.60
49236;DHT22;35067;48.134;8.378;2023-10-13T05:26:02;11.00;94.50
49236;DHT22;35067;48.134;8.378;2023-10-13T05:27:21;11.00;94.40
49236;DHT22;35067;48.134;8.378;2023-10-13T05:28:41;11.00;94.40
49236;DHT22;35067;48.134;8.378;2023-10-13T05:30:00;11.00;94.30
49236;DHT22;35067;48.134;8.378;2023-10-13T05:31:19;11.00;94.40
49236;DHT22;35067;48.134;8.378;2023-10-13T05:32:40;11.00;94.40
49236;DHT22;35067;48.134;8.378;2023-10-13T05:33:59;11.00;94.50
49236;DHT22;35067;48.134;8.378;2023-10-13T05:35:22;10.90;94.70
49236;DHT22;35067;48.134;8.378;2023-10-13T05:36:42;10.90;94.70
49236;DHT22;35067;48.134;8.378;2023-10-13T05:38:02;10.90;94.70
49236;DHT22;35067;48.134;8.378;2023-10-13T05:39:21;10.90;94.40
49236;DHT22;35067;48.134;8.378;2023-10-13T05:41:01;10.90;94.70
49236;DHT22;35067;48.134;8.378;2023-10-13T05:42:20;10.80;94.70
49236;DHT22;35067;48.134;8.378;2023-10-13T05:43:39;10.80;94.90
49236;DHT22;35067;48.134;8.378;2023-10-13T05:44:58;10.80;95.60
49236;DHT22;35067;48.134;8.378;2023-10-13T05:46:17;10.70;95.00
49236;DHT22;35067;48.134;8.378;2023-10-13T05:47:35;10.70;95.00
49236;DHT22;35067;48.134;8.378;2023-10-13T05:48:38;10.70;95.00
49236;DHT22;35067;48.134;8.378;2023-10-13T05:49:58;10.70;95.10
49236;DHT22;35067;48.134;8.378;2023-10-13T05:51:21;10.70;94.90
49236;DHT22;35067;48.134;8.378;2023-10-13T05:52:40;10.70;95.00
49236;DHT22;35067;48.134;8.378;2023-10-13T05:53:56;10.60;95.00
49236;DHT22;35067;48.134;8.378;2023-10-13T05:55:15;10.50;95.30
49236;DHT22;35067;48.134;8.378;2023-10-13T05:56:34;10.60;95.40
49236;DHT22;35067;48.134;8.378;2023-10-13T05:57:53;10.60;95.60
49236;DHT22;35067;48.134;8.378;2023-10-13T05:59:13;10.40;95.80
49236;DHT22;35067;48.134;8.378;2023-10-13T06:00:38;10.40;95.90
49236;DHT22;35067;48.134;8.378;2023-10-13T06:01:57;10.40;96.00
49236;DHT22;35067;48.134;8.378;2023-10-13T06:03:16;10.40;96.00
49236;DHT22;35067;48.134;8.378;2023-10-13T06:04:35;10.40;95.80
49236;DHT22;35067;48.134;8.378;2023-10-13T06:05:55;10.30;96.10
49236;DHT22;35067;48.134;8.378;2023-10-13T06:07:14;10.30;96.40
49236;DHT22;35067;48.134;8.378;2023-10-13T06:08:33;10.30;96.30
49236;DHT22;35067;48.134;8.378;2023-10-13T06:09:52;10.30;96.30
49236;DHT22;35067;48.134;8.378;2023-10-13T06:11:12;10.40;96.30
49236;DHT22;35067;48.134;8.378;2023-10-13T06:12:31;10.30;96.40
49236;DHT22;35067;48.134;8.378;2023-10-13T06:13:50;10.30;96.40
49236;DHT22;35067;48.134;8.378;2023-10-13T06:15:10;10.40;96.20
49236;DHT22;35067;48.134;8.378;2023-10-13T06:16:29;10.40;96.10
49236;DHT22;35067;48.134;8.378;2023-10-13T06:17:48;10.50;96.10
49236;DHT22;35067;48.134;8.378;2023-10-13T06:19:07;10.50;96.50
49236;DHT22;35067;48.134;8.378;2023-10-13T06:20:43;10.40;96.20
49236;DHT22;35067;48.134;8.378;2023-10-13T06:22:02;10.40;96.20
49236;DHT22;35067;48.134;8.378;2023-10-13T06:23:22;10.50;96.00
49236;DHT22;35067;48.134;8.378;2023-10-13T06:24:41;10.50;95.90
49236;DHT22;35067;48.134;8.378;2023-10-13T06:26:00;10.50;95.80
49236;DHT22;35067;48.134;8.378;2023-10-13T06:27:19;10.60;95.60
49236;DHT22;35067;48.134;8.378;2023-10-13T06:28:39;10.70;95.30
49236;DHT22;35067;48.134;8.378;2023-10-13T06:29:42;10.60;95.30
49236;DHT22;35067;48.134;8.378;2023-10-13T06:31:07;10.70;95.50
49236;DHT22;35067;48.134;8.378;2023-10-13T06:32:07;10.70;95.60
49236;DHT22;35067;48.134;8.378;2023-10-13T06:33:11;10.80;95.40
49236;DHT22;35067;48.134;8.378;2023-10-13T06:34:12;10.80;95.20
49236;DHT22;35067;48.134;8.378;2023-10-13T06:35:16;10.90;95.10
49236;DHT22;35067;48.134;8.378;2023-10-13T06:36:23;10.90;95.00
49236;DHT22;35067;48.134;8.378;2023-10-13T06:37:26;10.90;95.00
49236;DHT22;35067;48.134;8.378;2023-10-13T06:38:30;11.00;95.00
49236;DHT22;35067;48.134;8.378;2023-10-13T06:39:37;10.90;95.00
49236;DHT22;35067;48.134;8.378;2023-10-13T06:40:37;11.00;95.10
49236;DHT22;35067;48.134;8.378;2023-10-13T06:41:39;11.00;95.00
49236;DHT22;35067;48.134;8.378;2023-10-13T06:42:41;11.00;94.80
49236;DHT22;35067;48.134;8.378;2023-10-13T06:43:44;11.10;94.70
49236;DHT22;35067;48.134;8.378;2023-10-13T06:44:46;11.20;94.40
49236;DHT22;35067;48.134;8.378;2023-10-13T06:45:50;11.30;94.20
49236;DHT22;35067;48.134;8.378;2023-10-13T06:46:58;11.20;94.20
49236;DHT22;35067;48.134;8.378;2023-10-13T06:47:58;11.20;94.20
49236;DHT22;35067;48.134;8.378;2023-10-13T06:48:59;11.20;94.30
49236;DHT22;35067;48.134;8.378;2023-10-13T06:50:00;11.20;94.50
49236;DHT22;35067;48.134;8.378;2023-10-13T06:51:02;11.30;94.20
49236;DHT22;35067;48.134;8.378;2023-10-13T06:52:18;11.30;94.10
49236;DHT22;35067;48.134;8.378;2023-10-13T06:53:22;11.30;94.20
49236;DHT22;35067;48.134;8.378;2023-10-13T06:54:22;11.40;94.10
49236;DHT22;35067;48.134;8.378;2023-10-13T06:55:25;11.40;94.00
49236;DHT22;35067;48.134;8.378;2023-10-13T06:56:28;11.40;94.00
49236;DHT22;35067;48.134;8.378;2023-10-13T06:57:28;11.40;93.90
49236;DHT22;35067;48.134;8.378;2023-10-13T06:58:35;11.40;93.70
49236;DHT22;35067;48.134;8.378;2023-10-13T06:59:36;11.50;93.60
49236;DHT22;35067;48.134;8.378;2023-10-13T07:00:42;11.50;93.50
49236;DHT22;35067;48.134;8.378;2023-10-13T07:01:53;11.60;93.20
49236;DHT22;35067;48.134;8.378;2023-10-13T07:02:54;11.60;93.20
49236;DHT22;35067;48.134;8.378;2023-10-13T07:04:07;11.70;92.90
49236;DHT22;35067;48.134;8.378;2023-10-13T07:05:13;11.70;92.90
49236;DHT22;35067;48.134;8.378;2023-10-13T07:06:14;11.80;92.90
49236;DHT22;35067;48.134;8.378;2023-10-13T07:07:20;11.80;93.10
49236;DHT22;35067;48.134;8.378;2023-10-13T07:08:22;11.70;93.10
49236;DHT22;35067;48.134;8.378;2023-10-13T07:09:24;11.80;92.80